sensor_id;sensor_type;location;lat;lon;timestamp;P1;durP1;ratioP1;P2;durP2;ratioP2
10299;SDS011;5195;48.562;9.192;2023-07-29T00:00:49;1.90;;;1.80;;
10299;SDS011;5195;48.562;9.192;2023-07-29T00:03:15;3.53;;;1.50;;
10299;SDS011;5195;48.562;9.192;2023-07-29T00:05:41;4.33;;;1.87;;
10299;SDS011;5195;48.562;9.192;2023-07-29T00:08:07;1.60;;;1.50;;
10299;SDS011;5195;48.562;9.192;2023-07-29T00:10:35;2.30;;;2.10;;
10299;SDS011;5195;48.562;9.192;2023-07-29T00:12:58;2.67;;;2.47;;
10299;SDS011;5195;48.562;9.192;2023-07-29T00:15:24;2.28;;;2.17;;
10299;SDS011;5195;48.562;9.192;2023-07-29T00:17:49;2.20;;;2.05;;
10299;SDS011;5195;48.562;9.192;2023-07-29T00:20:15;1.92;;;1.80;;
10299;SDS011;5195;48.562;9.192;2023-07-29T00:22:40;1.85;;;1.75;;
10299;SDS011;5195;48.562;9.192;2023-07-29T00:25:06;1.90;;;1.80;;
10299;SDS011;5195;48.562;9.192;2023-07-29T00:27:32;1.87;;;1.77;;
10299;SDS011;5195;48.562;9.192;2023-07-29T00:29:57;1.73;;;1.62;;
10299;SDS011;5195;48.562;9.192;2023-07-29T00:32:23;1.73;;;1.63;;
10299;SDS011;5195;48.562;9.192;2023-07-29T00:34:49;1.87;;;1.77;;
10299;SDS011;5195;48.562;9.192;2023-07-29T00:37:15;1.60;;;1.50;;
10299;SDS011;5195;48.562;9.192;2023-07-29T00:39:40;2.20;;;2.00;;
10299;SDS011;5195;48.562;9.192;2023-07-29T00:42:06;1.93;;;1.83;;
10299;SDS011;5195;48.562;9.192;2023-07-29T00:44:31;2.00;;;1.43;;
10299;SDS011;5195;48.562;9.192;2023-07-29T00:46:57;3.63;;;2.00;;
10299;SDS011;5195;48.562;9.192;2023-07-29T00:49:22;2.10;;;1.93;;
10299;SDS011;5195;48.562;9.192;2023-07-29T00:51:49;2.67;;;1.90;;
10299;SDS011;5195;48.562;9.192;2023-07-29T00:54:16;1.97;;;1.87;;
10299;SDS011;5195;48.562;9.192;2023-07-29T00:56:41;2.00;;;1.90;;
10299;SDS011;5195;48.562;9.192;2023-07-29T00:59:07;1.83;;;1.73;;
10299;SDS011;5195;48.562;9.192;2023-07-29T01:01:33;2.20;;;2.10;;
10299;SDS011;5195;48.562;9.192;2023-07-29T01:03:58;1.83;;;1.77;;
10299;SDS011;5195;48.562;9.192;2023-07-29T01:09:02;2.20;;;2.10;;
10299;SDS011;5195;48.562;9.192;2023-07-29T01:14:05;1.93;;;1.67;;
10299;SDS011;5195;48.562;9.192;2023-07-29T01:16:52;2.10;;;2.00;;
10299;SDS011;5195;48.562;9.192;2023-07-29T01:19:14;1.77;;;1.67;;
10299;SDS011;5195;48.562;9.192;2023-07-29T01:21:37;2.00;;;1.90;;
10299;SDS011;5195;48.562;9.192;2023-07-29T01:24:02;1.80;;;1.70;;
10299;SDS011;5195;48.562;9.192;2023-07-29T01:26:28;2.67;;;1.93;;
10299;SDS011;5195;48.562;9.192;2023-07-29T01:28:53;6.15;;;2.17;;
10299;SDS011;5195;48.562;9.192;2023-07-29T01:31:27;2.60;;;2.40;;
10299;SDS011;5195;48.562;9.192;2023-07-29T01:33:59;2.43;;;2.23;;
10299;SDS011;5195;48.562;9.192;2023-07-29T01:36:25;2.40;;;1.90;;
10299;SDS011;5195;48.562;9.192;2023-07-29T01:38:49;1.97;;;1.87;;
10299;SDS011;5195;48.562;9.192;2023-07-29T01:41:14;1.90;;;1.80;;
10299;SDS011;5195;48.562;9.192;2023-07-29T01:43:40;2.30;;;2.10;;
10299;SDS011;5195;48.562;9.192;2023-07-29T01:46:06;2.27;;;2.07;;
10299;SDS011;5195;48.562;9.192;2023-07-29T01:48:32;1.97;;;1.80;;
10299;SDS011;5195;48.562;9.192;2023-07-29T01:50:59;2.10;;;1.90;;
10299;SDS011;5195;48.562;9.192;2023-07-29T01:53:24;2.50;;;2.30;;
10299;SDS011;5195;48.562;9.192;2023-07-29T01:55:51;2.73;;;1.90;;
10299;SDS011;5195;48.562;9.192;2023-07-29T01:58:17;2.30;;;2.10;;
10299;SDS011;5195;48.562;9.192;2023-07-29T02:00:42;2.10;;;2.00;;
10299;SDS011;5195;48.562;9.192;2023-07-29T02:03:08;1.87;;;1.67;;
10299;SDS011;5195;48.562;9.192;2023-07-29T02:05:33;2.03;;;1.53;;
10299;SDS011;5195;48.562;9.192;2023-07-29T02:07:59;1.90;;;1.80;;
10299;SDS011;5195;48.562;9.192;2023-07-29T02:10:24;1.80;;;1.70;;
10299;SDS011;5195;48.562;9.192;2023-07-29T02:12:51;1.80;;;1.70;;
10299;SDS011;5195;48.562;9.192;2023-07-29T02:15:16;1.77;;;1.67;;
10299;SDS011;5195;48.562;9.192;2023-07-29T02:17:42;1.90;;;1.80;;
10299;SDS011;5195;48.562;9.192;2023-07-29T02:20:08;1.73;;;1.40;;
10299;SDS011;5195;48.562;9.192;2023-07-29T02:22:33;1.77;;;1.60;;
10299;SDS011;5195;48.562;9.192;2023-07-29T02:25:00;2.20;;;1.75;;
10299;SDS011;5195;48.562;9.192;2023-07-29T02:27:25;1.63;;;1.53;;
10299;SDS011;5195;48.562;9.192;2023-07-29T02:29:51;1.60;;;1.50;;
10299;SDS011;5195;48.562;9.192;2023-07-29T02:32:16;1.70;;;1.47;;
10299;SDS011;5195;48.562;9.192;2023-07-29T02:34:42;1.37;;;1.37;;
10299;SDS011;5195;48.562;9.192;2023-07-29T02:37:07;1.43;;;1.33;;
10299;SDS011;5195;48.562;9.192;2023-07-29T02:39:34;1.80;;;1.70;;
10299;SDS011;5195;48.562;9.192;2023-07-29T02:41:59;1.60;;;1.50;;
10299;SDS011;5195;48.562;9.192;2023-07-29T02:44:24;1.73;;;1.73;;
10299;SDS011;5195;48.562;9.192;2023-07-29T02:46:50;1.80;;;1.70;;
10299;SDS011;5195;48.562;9.192;2023-07-29T02:49:15;2.58;;;1.80;;
10299;SDS011;5195;48.562;9.192;2023-07-29T02:51:41;1.70;;;1.60;;
10299;SDS011;5195;48.562;9.192;2023-07-29T02:54:06;1.50;;;1.50;;
10299;SDS011;5195;48.562;9.192;2023-07-29T02:56:33;1.63;;;1.20;;
10299;SDS011;5195;48.562;9.192;2023-07-29T02:58:58;1.30;;;1.20;;
10299;SDS011;5195;48.562;9.192;2023-07-29T03:01:24;1.23;;;1.23;;
10299;SDS011;5195;48.562;9.192;2023-07-29T03:03:53;1.80;;;1.70;;
10299;SDS011;5195;48.562;9.192;2023-07-29T03:06:19;1.27;;;1.27;;
10299;SDS011;5195;48.562;9.192;2023-07-29T03:08:45;1.10;;;1.10;;
10299;SDS011;5195;48.562;9.192;2023-07-29T03:11:12;1.67;;;1.57;;
10299;SDS011;5195;48.562;9.192;2023-07-29T03:13:37;1.60;;;1.50;;
10299;SDS011;5195;48.562;9.192;2023-07-29T03:16:11;1.40;;;1.40;;
10299;SDS011;5195;48.562;9.192;2023-07-29T03:18:42;2.10;;;1.60;;
10299;SDS011;5195;48.562;9.192;2023-07-29T03:21:07;2.87;;;1.73;;
10299;SDS011;5195;48.562;9.192;2023-07-29T03:23:33;1.83;;;1.73;;
10299;SDS011;5195;48.562;9.192;2023-07-29T03:25:59;1.75;;;1.62;;
10299;SDS011;5195;48.562;9.192;2023-07-29T03:28:28;2.00;;;1.90;;
10299;SDS011;5195;48.562;9.192;2023-07-29T03:30:53;1.83;;;1.60;;
10299;SDS011;5195;48.562;9.192;2023-07-29T03:33:22;1.95;;;1.80;;
10299;SDS011;5195;48.562;9.192;2023-07-29T03:35:47;2.22;;;1.80;;
10299;SDS011;5195;48.562;9.192;2023-07-29T03:38:14;4.32;;;2.00;;
10299;SDS011;5195;48.562;9.192;2023-07-29T03:40:39;1.70;;;1.57;;
10299;SDS011;5195;48.562;9.192;2023-07-29T03:43:06;1.93;;;1.70;;
10299;SDS011;5195;48.562;9.192;2023-07-29T03:45:31;2.30;;;1.65;;
10299;SDS011;5195;48.562;9.192;2023-07-29T03:47:57;2.30;;;2.10;;
10299;SDS011;5195;48.562;9.192;2023-07-29T03:50:22;2.00;;;1.80;;
10299;SDS011;5195;48.562;9.192;2023-07-29T03:52:48;4.40;;;1.77;;
10299;SDS011;5195;48.562;9.192;2023-07-29T03:55:13;5.37;;;1.90;;
10299;SDS011;5195;48.562;9.192;2023-07-29T03:57:39;2.80;;;1.97;;
10299;SDS011;5195;48.562;9.192;2023-07-29T04:00:06;2.15;;;1.67;;
10299;SDS011;5195;48.562;9.192;2023-07-29T04:02:31;1.73;;;1.63;;
10299;SDS011;5195;48.562;9.192;2023-07-29T04:04:57;1.63;;;1.57;;
10299;SDS011;5195;48.562;9.192;2023-07-29T04:07:24;2.47;;;1.70;;
10299;SDS011;5195;48.562;9.192;2023-07-29T04:09:49;1.50;;;1.40;;
10299;SDS011;5195;48.562;9.192;2023-07-29T04:12:15;2.57;;;1.23;;
10299;SDS011;5195;48.562;9.192;2023-07-29T04:14:40;1.83;;;1.73;;
10299;SDS011;5195;48.562;9.192;2023-07-29T04:17:07;1.98;;;1.40;;
10299;SDS011;5195;48.562;9.192;2023-07-29T04:19:33;1.80;;;1.70;;
10299;SDS011;5195;48.562;9.192;2023-07-29T04:21:59;1.83;;;1.73;;
10299;SDS011;5195;48.562;9.192;2023-07-29T04:24:25;3.97;;;1.53;;
10299;SDS011;5195;48.562;9.192;2023-07-29T04:26:50;2.60;;;1.60;;
10299;SDS011;5195;48.562;9.192;2023-07-29T04:29:16;2.25;;;1.70;;
10299;SDS011;5195;48.562;9.192;2023-07-29T04:31:42;1.80;;;1.65;;
10299;SDS011;5195;48.562;9.192;2023-07-29T04:34:09;1.58;;;1.48;;
10299;SDS011;5195;48.562;9.192;2023-07-29T04:36:35;1.30;;;1.20;;
10299;SDS011;5195;48.562;9.192;2023-07-29T04:39:00;1.80;;;1.67;;
10299;SDS011;5195;48.562;9.192;2023-07-29T04:41:26;3.28;;;1.95;;
10299;SDS011;5195;48.562;9.192;2023-07-29T04:43:52;2.20;;;1.80;;
10299;SDS011;5195;48.562;9.192;2023-07-29T04:46:17;2.37;;;1.77;;
10299;SDS011;5195;48.562;9.192;2023-07-29T04:48:43;1.80;;;1.70;;
10299;SDS011;5195;48.562;9.192;2023-07-29T04:51:08;1.93;;;1.83;;
10299;SDS011;5195;48.562;9.192;2023-07-29T04:53:35;2.47;;;2.03;;
10299;SDS011;5195;48.562;9.192;2023-07-29T04:56:00;2.30;;;2.00;;
10299;SDS011;5195;48.562;9.192;2023-07-29T04:58:26;2.42;;;2.03;;
10299;SDS011;5195;48.562;9.192;2023-07-29T05:00:52;1.70;;;1.60;;
10299;SDS011;5195;48.562;9.192;2023-07-29T05:03:18;2.43;;;1.80;;
10299;SDS011;5195;48.562;9.192;2023-07-29T05:05:43;1.75;;;1.70;;
10299;SDS011;5195;48.562;9.192;2023-07-29T05:08:09;1.67;;;1.53;;
10299;SDS011;5195;48.562;9.192;2023-07-29T05:10:36;1.97;;;1.70;;
10299;SDS011;5195;48.562;9.192;2023-07-29T05:13:02;4.67;;;2.40;;
10299;SDS011;5195;48.562;9.192;2023-07-29T05:15:27;13.00;;;3.30;;
10299;SDS011;5195;48.562;9.192;2023-07-29T05:17:53;17.03;;;2.67;;
10299;SDS011;5195;48.562;9.192;2023-07-29T05:20:19;2.07;;;1.73;;
10299;SDS011;5195;48.562;9.192;2023-07-29T05:22:45;1.60;;;1.50;;
10299;SDS011;5195;48.562;9.192;2023-07-29T05:25:11;1.20;;;1.20;;
10299;SDS011;5195;48.562;9.192;2023-07-29T05:27:37;1.43;;;1.33;;
10299;SDS011;5195;48.562;9.192;2023-07-29T05:30:03;1.87;;;1.60;;
10299;SDS011;5195;48.562;9.192;2023-07-29T05:32:28;1.30;;;1.20;;
10299;SDS011;5195;48.562;9.192;2023-07-29T05:34:54;1.53;;;1.43;;
10299;SDS011;5195;48.562;9.192;2023-07-29T05:37:20;1.53;;;1.43;;
10299;SDS011;5195;48.562;9.192;2023-07-29T05:39:46;2.50;;;1.90;;
10299;SDS011;5195;48.562;9.192;2023-07-29T05:42:12;2.60;;;2.00;;
10299;SDS011;5195;48.562;9.192;2023-07-29T05:44:39;2.03;;;1.83;;
10299;SDS011;5195;48.562;9.192;2023-07-29T05:47:08;2.30;;;2.20;;
10299;SDS011;5195;48.562;9.192;2023-07-29T05:49:33;2.45;;;2.17;;
10299;SDS011;5195;48.562;9.192;2023-07-29T05:51:59;3.10;;;2.50;;
10299;SDS011;5195;48.562;9.192;2023-07-29T05:54:24;2.77;;;2.47;;
10299;SDS011;5195;48.562;9.192;2023-07-29T05:56:51;4.33;;;2.17;;
10299;SDS011;5195;48.562;9.192;2023-07-29T05:59:17;3.03;;;2.50;;
10299;SDS011;5195;48.562;9.192;2023-07-29T06:01:43;2.97;;;2.50;;
10299;SDS011;5195;48.562;9.192;2023-07-29T06:04:08;2.70;;;2.50;;
10299;SDS011;5195;48.562;9.192;2023-07-29T06:06:34;3.50;;;2.25;;
10299;SDS011;5195;48.562;9.192;2023-07-29T06:09:00;2.70;;;2.47;;
10299;SDS011;5195;48.562;9.192;2023-07-29T06:11:26;2.90;;;2.70;;
10299;SDS011;5195;48.562;9.192;2023-07-29T06:13:51;2.97;;;2.75;;
10299;SDS011;5195;48.562;9.192;2023-07-29T06:16:17;2.90;;;2.70;;
10299;SDS011;5195;48.562;9.192;2023-07-29T06:18:42;2.95;;;2.65;;
10299;SDS011;5195;48.562;9.192;2023-07-29T06:21:08;3.23;;;2.93;;
10299;SDS011;5195;48.562;9.192;2023-07-29T06:23:35;2.87;;;2.50;;
10299;SDS011;5195;48.562;9.192;2023-07-29T06:26:00;2.70;;;2.50;;
10299;SDS011;5195;48.562;9.192;2023-07-29T06:28:26;3.10;;;2.90;;
10299;SDS011;5195;48.562;9.192;2023-07-29T06:30:52;3.60;;;3.30;;
10299;SDS011;5195;48.562;9.192;2023-07-29T06:33:17;3.42;;;3.20;;
10299;SDS011;5195;48.562;9.192;2023-07-29T06:35:43;3.50;;;3.30;;
10299;SDS011;5195;48.562;9.192;2023-07-29T06:38:08;2.97;;;2.77;;
10299;SDS011;5195;48.562;9.192;2023-07-29T06:40:34;3.30;;;3.08;;
10299;SDS011;5195;48.562;9.192;2023-07-29T06:42:59;3.47;;;3.27;;
10299;SDS011;5195;48.562;9.192;2023-07-29T06:45:26;2.80;;;2.60;;
10299;SDS011;5195;48.562;9.192;2023-07-29T06:47:50;2.50;;;2.30;;
10299;SDS011;5195;48.562;9.192;2023-07-29T06:50:16;2.53;;;2.42;;
10299;SDS011;5195;48.562;9.192;2023-07-29T06:52:44;2.30;;;2.10;;
10299;SDS011;5195;48.562;9.192;2023-07-29T06:55:10;2.30;;;2.20;;
10299;SDS011;5195;48.562;9.192;2023-07-29T06:57:35;2.57;;;2.47;;
10299;SDS011;5195;48.562;9.192;2023-07-29T07:00:01;3.00;;;2.73;;
10299;SDS011;5195;48.562;9.192;2023-07-29T07:02:26;4.78;;;3.33;;
10299;SDS011;5195;48.562;9.192;2023-07-29T07:04:52;6.70;;;3.60;;
10299;SDS011;5195;48.562;9.192;2023-07-29T07:07:18;6.23;;;3.63;;
10299;SDS011;5195;48.562;9.192;2023-07-29T07:09:44;5.17;;;4.10;;
10299;SDS011;5195;48.562;9.192;2023-07-29T07:12:09;7.70;;;4.10;;
10299;SDS011;5195;48.562;9.192;2023-07-29T07:14:35;7.40;;;4.60;;
10299;SDS011;5195;48.562;9.192;2023-07-29T07:17:00;5.15;;;4.55;;
10299;SDS011;5195;48.562;9.192;2023-07-29T07:19:26;4.00;;;3.70;;
10299;SDS011;5195;48.562;9.192;2023-07-29T07:21:52;5.67;;;4.57;;
10299;SDS011;5195;48.562;9.192;2023-07-29T07:24:18;4.37;;;3.30;;
10299;SDS011;5195;48.562;9.192;2023-07-29T07:26:44;8.20;;;3.43;;
10299;SDS011;5195;48.562;9.192;2023-07-29T07:29:09;4.63;;;4.10;;
10299;SDS011;5195;48.562;9.192;2023-07-29T07:31:35;4.40;;;4.00;;
10299;SDS011;5195;48.562;9.192;2023-07-29T07:34:01;5.53;;;4.00;;
10299;SDS011;5195;48.562;9.192;2023-07-29T07:36:30;4.60;;;4.20;;
10299;SDS011;5195;48.562;9.192;2023-07-29T07:38:55;3.83;;;3.53;;
10299;SDS011;5195;48.562;9.192;2023-07-29T07:41:21;4.57;;;4.25;;
10299;SDS011;5195;48.562;9.192;2023-07-29T07:43:47;5.68;;;3.58;;
10299;SDS011;5195;48.562;9.192;2023-07-29T07:46:13;4.32;;;3.90;;
10299;SDS011;5195;48.562;9.192;2023-07-29T07:48:39;4.53;;;4.12;;
10299;SDS011;5195;48.562;9.192;2023-07-29T07:51:11;4.47;;;4.07;;
10299;SDS011;5195;48.562;9.192;2023-07-29T07:53:37;3.63;;;3.43;;
10299;SDS011;5195;48.562;9.192;2023-07-29T07:56:03;4.50;;;4.10;;
10299;SDS011;5195;48.562;9.192;2023-07-29T07:58:28;5.40;;;4.70;;
10299;SDS011;5195;48.562;9.192;2023-07-29T08:01:00;5.30;;;4.80;;
10299;SDS011;5195;48.562;9.192;2023-07-29T08:03:19;4.63;;;4.30;;
10299;SDS011;5195;48.562;9.192;2023-07-29T08:05:45;6.20;;;5.60;;
10299;SDS011;5195;48.562;9.192;2023-07-29T08:08:11;4.90;;;4.50;;
10299;SDS011;5195;48.562;9.192;2023-07-29T08:10:36;5.20;;;4.80;;
10299;SDS011;5195;48.562;9.192;2023-07-29T08:13:02;4.10;;;3.80;;
10299;SDS011;5195;48.562;9.192;2023-07-29T08:15:29;4.78;;;4.37;;
10299;SDS011;5195;48.562;9.192;2023-07-29T08:17:54;4.67;;;3.80;;
10299;SDS011;5195;48.562;9.192;2023-07-29T08:20:20;3.50;;;3.20;;
10299;SDS011;5195;48.562;9.192;2023-07-29T08:22:45;3.50;;;3.30;;
10299;SDS011;5195;48.562;9.192;2023-07-29T08:25:12;3.53;;;3.33;;
10299;SDS011;5195;48.562;9.192;2023-07-29T08:27:39;3.23;;;3.03;;
10299;SDS011;5195;48.562;9.192;2023-07-29T08:30:05;2.60;;;2.40;;
10299;SDS011;5195;48.562;9.192;2023-07-29T08:32:31;3.00;;;2.80;;
10299;SDS011;5195;48.562;9.192;2023-07-29T08:34:56;3.53;;;3.33;;
10299;SDS011;5195;48.562;9.192;2023-07-29T08:37:22;3.17;;;2.87;;
10299;SDS011;5195;48.562;9.192;2023-07-29T08:39:47;2.80;;;2.70;;
10299;SDS011;5195;48.562;9.192;2023-07-29T08:42:13;5.37;;;3.72;;
10299;SDS011;5195;48.562;9.192;2023-07-29T08:44:40;4.20;;;3.27;;
10299;SDS011;5195;48.562;9.192;2023-07-29T08:47:08;3.47;;;3.22;;
10299;SDS011;5195;48.562;9.192;2023-07-29T08:49:34;3.23;;;2.93;;
10299;SDS011;5195;48.562;9.192;2023-07-29T08:51:59;3.17;;;2.87;;
10299;SDS011;5195;48.562;9.192;2023-07-29T08:54:26;2.80;;;2.60;;
10299;SDS011;5195;48.562;9.192;2023-07-29T08:56:51;3.07;;;2.90;;
10299;SDS011;5195;48.562;9.192;2023-07-29T08:59:17;3.50;;;3.05;;
10299;SDS011;5195;48.562;9.192;2023-07-29T09:01:43;2.37;;;2.20;;
10299;SDS011;5195;48.562;9.192;2023-07-29T09:04:08;2.50;;;2.33;;
10299;SDS011;5195;48.562;9.192;2023-07-29T09:06:34;2.47;;;2.37;;
10299;SDS011;5195;48.562;9.192;2023-07-29T09:09:00;2.90;;;2.70;;
10299;SDS011;5195;48.562;9.192;2023-07-29T09:11:26;2.45;;;2.33;;
10299;SDS011;5195;48.562;9.192;2023-07-29T09:13:53;2.47;;;2.37;;
10299;SDS011;5195;48.562;9.192;2023-07-29T09:16:20;2.40;;;2.30;;
10299;SDS011;5195;48.562;9.192;2023-07-29T09:18:50;2.65;;;2.45;;
10299;SDS011;5195;48.562;9.192;2023-07-29T09:21:22;2.43;;;2.23;;
10299;SDS011;5195;48.562;9.192;2023-07-29T09:23:44;2.50;;;2.30;;
10299;SDS011;5195;48.562;9.192;2023-07-29T09:26:09;2.30;;;2.20;;
10299;SDS011;5195;48.562;9.192;2023-07-29T09:28:36;3.00;;;2.50;;
10299;SDS011;5195;48.562;9.192;2023-07-29T09:31:02;2.20;;;2.10;;
10299;SDS011;5195;48.562;9.192;2023-07-29T09:33:28;2.20;;;2.10;;
10299;SDS011;5195;48.562;9.192;2023-07-29T09:35:53;1.83;;;1.73;;
10299;SDS011;5195;48.562;9.192;2023-07-29T09:38:26;2.60;;;2.40;;
10299;SDS011;5195;48.562;9.192;2023-07-29T09:40:45;2.40;;;2.30;;
10299;SDS011;5195;48.562;9.192;2023-07-29T09:43:11;2.50;;;2.30;;
10299;SDS011;5195;48.562;9.192;2023-07-29T09:45:37;2.22;;;2.03;;
10299;SDS011;5195;48.562;9.192;2023-07-29T09:48:03;2.47;;;2.37;;
10299;SDS011;5195;48.562;9.192;2023-07-29T09:50:28;3.30;;;2.50;;
10299;SDS011;5195;48.562;9.192;2023-07-29T09:52:54;2.50;;;2.30;;
10299;SDS011;5195;48.562;9.192;2023-07-29T09:55:24;2.23;;;2.13;;
10299;SDS011;5195;48.562;9.192;2023-07-29T09:57:58;2.30;;;2.20;;
10299;SDS011;5195;48.562;9.192;2023-07-29T10:00:27;2.80;;;2.70;;
10299;SDS011;5195;48.562;9.192;2023-07-29T10:02:54;2.50;;;2.40;;
10299;SDS011;5195;48.562;9.192;2023-07-29T10:05:21;2.47;;;2.30;;
10299;SDS011;5195;48.562;9.192;2023-07-29T10:07:47;2.63;;;2.53;;
10299;SDS011;5195;48.562;9.192;2023-07-29T10:10:13;3.35;;;2.60;;
10299;SDS011;5195;48.562;9.192;2023-07-29T10:12:39;2.70;;;2.50;;
10299;SDS011;5195;48.562;9.192;2023-07-29T10:15:05;1.97;;;1.87;;
10299;SDS011;5195;48.562;9.192;2023-07-29T10:17:31;2.80;;;2.70;;
10299;SDS011;5195;48.562;9.192;2023-07-29T10:19:56;2.70;;;2.50;;
10299;SDS011;5195;48.562;9.192;2023-07-29T10:22:24;2.30;;;2.10;;
10299;SDS011;5195;48.562;9.192;2023-07-29T10:24:48;2.53;;;2.40;;
10299;SDS011;5195;48.562;9.192;2023-07-29T10:27:16;5.37;;;2.20;;
10299;SDS011;5195;48.562;9.192;2023-07-29T10:29:41;2.30;;;2.20;;
10299;SDS011;5195;48.562;9.192;2023-07-29T10:32:07;2.72;;;2.53;;
10299;SDS011;5195;48.562;9.192;2023-07-29T10:34:32;2.53;;;2.43;;
10299;SDS011;5195;48.562;9.192;2023-07-29T10:36:59;2.40;;;2.30;;
10299;SDS011;5195;48.562;9.192;2023-07-29T10:39:25;2.50;;;2.40;;
10299;SDS011;5195;48.562;9.192;2023-07-29T10:41:55;2.90;;;2.67;;
10299;SDS011;5195;48.562;9.192;2023-07-29T10:47:12;2.20;;;2.10;;
10299;SDS011;5195;48.562;9.192;2023-07-29T10:49:41;2.13;;;2.03;;
10299;SDS011;5195;48.562;9.192;2023-07-29T10:52:06;2.60;;;2.40;;
10299;SDS011;5195;48.562;9.192;2023-07-29T10:54:41;2.53;;;2.42;;
10299;SDS011;5195;48.562;9.192;2023-07-29T10:57:33;2.60;;;2.50;;
10299;SDS011;5195;48.562;9.192;2023-07-29T10:59:56;2.40;;;2.30;;
10299;SDS011;5195;48.562;9.192;2023-07-29T11:02:22;4.20;;;2.53;;
10299;SDS011;5195;48.562;9.192;2023-07-29T11:04:49;2.77;;;2.57;;
10299;SDS011;5195;48.562;9.192;2023-07-29T11:17:48;2.50;;;2.40;;
10299;SDS011;5195;48.562;9.192;2023-07-29T11:20:21;2.75;;;2.65;;
10299;SDS011;5195;48.562;9.192;2023-07-29T11:22:49;2.40;;;2.20;;
10299;SDS011;5195;48.562;9.192;2023-07-29T11:25:16;2.10;;;1.87;;
10299;SDS011;5195;48.562;9.192;2023-07-29T11:27:40;2.65;;;2.22;;
10299;SDS011;5195;48.562;9.192;2023-07-29T11:30:07;2.33;;;2.20;;
10299;SDS011;5195;48.562;9.192;2023-07-29T11:32:31;2.43;;;2.23;;
10299;SDS011;5195;48.562;9.192;2023-07-29T11:35:01;2.17;;;2.07;;
10299;SDS011;5195;48.562;9.192;2023-07-29T11:37:23;2.65;;;2.55;;
10299;SDS011;5195;48.562;9.192;2023-07-29T11:39:48;2.70;;;2.50;;
10299;SDS011;5195;48.562;9.192;2023-07-29T11:42:14;2.47;;;2.23;;
10299;SDS011;5195;48.562;9.192;2023-07-29T11:44:40;2.40;;;2.30;;
10299;SDS011;5195;48.562;9.192;2023-07-29T11:47:09;2.78;;;2.35;;
10299;SDS011;5195;48.562;9.192;2023-07-29T11:49:32;2.80;;;2.30;;
10299;SDS011;5195;48.562;9.192;2023-07-29T11:51:57;2.30;;;2.20;;
10299;SDS011;5195;48.562;9.192;2023-07-29T11:54:23;2.40;;;2.30;;
10299;SDS011;5195;48.562;9.192;2023-07-29T11:56:48;2.43;;;2.20;;
10299;SDS011;5195;48.562;9.192;2023-07-29T11:59:14;2.40;;;2.30;;
10299;SDS011;5195;48.562;9.192;2023-07-29T12:01:39;2.53;;;2.30;;
10299;SDS011;5195;48.562;9.192;2023-07-29T12:04:05;2.43;;;2.30;;
10299;SDS011;5195;48.562;9.192;2023-07-29T12:06:31;2.33;;;2.22;;
10299;SDS011;5195;48.562;9.192;2023-07-29T12:08:57;2.50;;;2.40;;
10299;SDS011;5195;48.562;9.192;2023-07-29T12:11:22;2.30;;;2.20;;
10299;SDS011;5195;48.562;9.192;2023-07-29T12:13:48;2.30;;;2.20;;
10299;SDS011;5195;48.562;9.192;2023-07-29T12:16:17;3.03;;;2.25;;
10299;SDS011;5195;48.562;9.192;2023-07-29T12:18:42;9.25;;;2.78;;
10299;SDS011;5195;48.562;9.192;2023-07-29T12:21:08;2.20;;;2.03;;
10299;SDS011;5195;48.562;9.192;2023-07-29T12:23:34;2.10;;;2.00;;
10299;SDS011;5195;48.562;9.192;2023-07-29T12:26:00;2.20;;;2.10;;
10299;SDS011;5195;48.562;9.192;2023-07-29T12:28:26;2.25;;;2.10;;
10299;SDS011;5195;48.562;9.192;2023-07-29T12:30:55;2.37;;;2.27;;
10299;SDS011;5195;48.562;9.192;2023-07-29T12:33:35;2.20;;;2.10;;
10299;SDS011;5195;48.562;9.192;2023-07-29T12:36:00;2.60;;;2.50;;
10299;SDS011;5195;48.562;9.192;2023-07-29T12:38:26;2.60;;;2.40;;
10299;SDS011;5195;48.562;9.192;2023-07-29T12:40:51;3.17;;;2.20;;
10299;SDS011;5195;48.562;9.192;2023-07-29T12:43:18;2.33;;;2.23;;
10299;SDS011;5195;48.562;9.192;2023-07-29T12:45:43;2.00;;;1.87;;
10299;SDS011;5195;48.562;9.192;2023-07-29T12:48:10;3.83;;;2.20;;
10299;SDS011;5195;48.562;9.192;2023-07-29T12:50:36;2.10;;;2.00;;
10299;SDS011;5195;48.562;9.192;2023-07-29T12:53:02;2.40;;;2.30;;
10299;SDS011;5195;48.562;9.192;2023-07-29T12:55:27;2.37;;;2.27;;
10299;SDS011;5195;48.562;9.192;2023-07-29T12:57:53;3.05;;;2.42;;
10299;SDS011;5195;48.562;9.192;2023-07-29T13:00:18;2.80;;;2.50;;
10299;SDS011;5195;48.562;9.192;2023-07-29T13:02:44;4.78;;;2.40;;
10299;SDS011;5195;48.562;9.192;2023-07-29T13:05:10;2.10;;;2.00;;
10299;SDS011;5195;48.562;9.192;2023-07-29T13:07:35;2.58;;;2.37;;
10299;SDS011;5195;48.562;9.192;2023-07-29T13:10:01;2.42;;;2.33;;
10299;SDS011;5195;48.562;9.192;2023-07-29T13:12:26;2.87;;;2.57;;
10299;SDS011;5195;48.562;9.192;2023-07-29T13:14:52;2.40;;;2.20;;
10299;SDS011;5195;48.562;9.192;2023-07-29T13:17:17;2.75;;;2.50;;
10299;SDS011;5195;48.562;9.192;2023-07-29T13:19:43;2.80;;;2.60;;
10299;SDS011;5195;48.562;9.192;2023-07-29T13:22:09;2.90;;;2.60;;
10299;SDS011;5195;48.562;9.192;2023-07-29T13:24:34;38.00;;;7.20;;
10299;SDS011;5195;48.562;9.192;2023-07-29T13:27:00;5.33;;;2.77;;
10299;SDS011;5195;48.562;9.192;2023-07-29T13:29:25;41.63;;;7.97;;
10299;SDS011;5195;48.562;9.192;2023-07-29T13:31:51;4.67;;;2.87;;
10299;SDS011;5195;48.562;9.192;2023-07-29T13:34:17;33.72;;;5.78;;
10299;SDS011;5195;48.562;9.192;2023-07-29T13:36:42;5.00;;;2.70;;
10299;SDS011;5195;48.562;9.192;2023-07-29T13:39:08;2.23;;;2.10;;
10299;SDS011;5195;48.562;9.192;2023-07-29T13:41:33;2.87;;;2.20;;
10299;SDS011;5195;48.562;9.192;2023-07-29T13:44:01;2.03;;;1.93;;
10299;SDS011;5195;48.562;9.192;2023-07-29T13:46:26;2.70;;;2.20;;
10299;SDS011;5195;48.562;9.192;2023-07-29T13:48:52;2.00;;;1.87;;
10299;SDS011;5195;48.562;9.192;2023-07-29T13:51:18;2.45;;;2.10;;
10299;SDS011;5195;48.562;9.192;2023-07-29T13:53:44;2.33;;;2.10;;
10299;SDS011;5195;48.562;9.192;2023-07-29T13:56:10;2.50;;;2.40;;
10299;SDS011;5195;48.562;9.192;2023-07-29T13:58:35;2.03;;;1.93;;
10299;SDS011;5195;48.562;9.192;2023-07-29T14:01:01;2.90;;;2.37;;
10299;SDS011;5195;48.562;9.192;2023-07-29T14:03:26;2.20;;;2.10;;
10299;SDS011;5195;48.562;9.192;2023-07-29T14:05:52;2.25;;;1.73;;
10299;SDS011;5195;48.562;9.192;2023-07-29T14:08:17;2.10;;;2.00;;
10299;SDS011;5195;48.562;9.192;2023-07-29T14:10:43;2.42;;;2.15;;
10299;SDS011;5195;48.562;9.192;2023-07-29T14:13:09;30.20;;;4.50;;
10299;SDS011;5195;48.562;9.192;2023-07-29T14:15:34;2.10;;;2.00;;
10299;SDS011;5195;48.562;9.192;2023-07-29T14:18:00;2.43;;;2.23;;
10299;SDS011;5195;48.562;9.192;2023-07-29T14:20:25;2.17;;;2.07;;
10299;SDS011;5195;48.562;9.192;2023-07-29T14:22:51;3.37;;;2.35;;
10299;SDS011;5195;48.562;9.192;2023-07-29T14:25:16;2.10;;;2.00;;
10299;SDS011;5195;48.562;9.192;2023-07-29T14:27:42;2.42;;;2.33;;
10299;SDS011;5195;48.562;9.192;2023-07-29T14:30:08;2.47;;;2.20;;
10299;SDS011;5195;48.562;9.192;2023-07-29T14:32:33;2.50;;;2.30;;
10299;SDS011;5195;48.562;9.192;2023-07-29T14:34:59;2.95;;;2.28;;
10299;SDS011;5195;48.562;9.192;2023-07-29T14:37:25;2.40;;;2.30;;
10299;SDS011;5195;48.562;9.192;2023-07-29T14:39:51;2.37;;;2.28;;
10299;SDS011;5195;48.562;9.192;2023-07-29T14:42:17;2.70;;;1.90;;
10299;SDS011;5195;48.562;9.192;2023-07-29T14:44:42;2.60;;;2.40;;
10299;SDS011;5195;48.562;9.192;2023-07-29T14:47:08;2.47;;;2.27;;
10299;SDS011;5195;48.562;9.192;2023-07-29T14:49:34;2.55;;;2.45;;
10299;SDS011;5195;48.562;9.192;2023-07-29T14:52:06;2.40;;;2.30;;
10299;SDS011;5195;48.562;9.192;2023-07-29T14:54:33;2.57;;;2.47;;
10299;SDS011;5195;48.562;9.192;2023-07-29T14:57:00;2.20;;;2.10;;
10299;SDS011;5195;48.562;9.192;2023-07-29T14:59:32;2.50;;;2.40;;
10299;SDS011;5195;48.562;9.192;2023-07-29T15:01:58;2.40;;;2.20;;
10299;SDS011;5195;48.562;9.192;2023-07-29T15:04:27;1.97;;;1.90;;
10299;SDS011;5195;48.562;9.192;2023-07-29T15:06:53;2.23;;;2.13;;
10299;SDS011;5195;48.562;9.192;2023-07-29T15:09:20;2.10;;;2.00;;
10299;SDS011;5195;48.562;9.192;2023-07-29T15:11:46;2.10;;;2.00;;